Garden City, MI

5:26 AM EST on March 05, 2015 (GMT -0500)
Garden City Weather | Change Station
CLOSE
Current Station
Personal Weather Station
Location: Garden City, MI
Elevation: 640 ft
Nearby Weather Stations

Elev 640 ft 42.32 °N, 83.35 °W | Updated 11 seconds ago

Mostly Cloudy
Mostly Cloudy
10.9 °F
Feels Like 11 °F
N
2.7
Wind Variable Wind from North
Gusts 5.8 mph

Today
High -- | Low -- °F
--% Chance of Precip.
Yesterday
High -- | Low -- °F
Precip. -- in
7:02 AM 6:27 PM
Full, 100% visible
Pressure 30.35 in
Visibility 10.0 miles
Clouds Few 12000 ft
Mostly Cloudy 19000 ft
Mostly Cloudy 23000 ft
Windchill 11 °F
Dew Point 3 °F
Humidity 70%
Rainfall in
Snow Depth Not available.
UV 0 out of 12
Pollen .40 out of 12
Air Quality Not available.
Flu Activity Not available.
METAR KDTW 050953Z 35007KT 10SM FEW120 BKN190 BKN230 M11/M17 A3032 RMK AO2 SLP275 T11111172 $

More Conditions Fewer Conditions

Pressure 30.35 in
Visibility 10.0 miles
Clouds Few 12000 ft
Mostly Cloudy 19000 ft
Mostly Cloudy 23000 ft
Windchill 11 °F
Dew Point 3 °F
Humidity 70%
Rainfall in
Snow Depth Not available.
UV 0 out of 12
Pollen .40 out of 12
Air Quality Not available.
Flu Activity Not available.
METAR KDTW 050953Z 35007KT 10SM FEW120 BKN190 BKN230 M11/M17 A3032 RMK AO2 SLP275 T11111172 $

More Conditions Fewer Conditions

10-Day Weather Forecast

Almanac

Astronomy

Mar. 05, 2015 Rise Set
Actual Time
Civil Twilight
Nautical Twilight
Astronomical Twilight
Moon
Length of Visible Light
Length of Day
Tomorrow will be .
, % of the Moon is Illuminated

Today's Extremes

State Highs State Lows

Community

WunderPhotos

Upload Photos

1,802,714 photos uploaded!

WunderBlogs® & News

Nearby

Air Quality

  Air Quality AQ Index Pollutant
Not available.

Snow Depth

Station Depth Elevation

Earthquake Activity

City Distance Mag. Time & Date
Minimum magnitude displayed is 2.5.

Coastal Water Temperatures

Place Temperature

Nearby Weather Stations